Edward F Knapp State Airport Barre, Montpelier US
ICAO: KMPV
IATA: MPV
Category: Medium
Scheduled Services: No

Elevation: 1166 ft
TransAlt. 18000 ft.

Airport Communications:
ASOS:132.675
BOSTON CNTR:135.7
BURLINGTON RDO:122.6
CTAF/UNICOM:122.8

KMPV Zoom In..

Runways:

(A) RW 05 length 4022 ft width 100 ft
---- / hdg 48

(B) RW 17 length 5002 ft width 100 ft
ILS 108.70 / hdg 168

(C) RW 23 length 4022 ft width 100 ft
---- / hdg 228

(D) RW 35 length 5002 ft width 100 ft
---- / hdg 348

Location; KMPV
Day. 21 / Time. 14.51 Zulu
* Altimeter: 30.20
* Temperature: 18° c. 64.4°f.
* Wind from: VRB° Speed 03 kn.
Dewpoint: 06° c.
Visibility: 10 Statute Miles.
Clouds: Clear (automated report).

KMPV 211451Z AUTO VRB03KT 10SM CLR 18/06 A3020 RMK AO2 SLP227 T01830056 58002


Wind From VRB°
Speed 03 kn.

 
 
jpsmedia.com for Web Design SOUNDCLOUD worldairports.se 2018   terms of use